createdAt,value
2019-02-20T00:00:57.513Z,8.33
2019-02-20T00:01:56.900Z,8.29
2019-02-20T00:02:56.739Z,8.29
2019-02-20T00:03:56.507Z,8.37
2019-02-20T00:04:56.326Z,8.3
2019-02-20T00:13:36.987Z,8.36
2019-02-20T00:14:37.554Z,8.37
2019-02-20T00:15:38.476Z,8.29
2019-02-20T00:16:38.260Z,8.18
2019-02-20T00:17:36.809Z,8.3
2019-02-20T00:18:35.593Z,8.26
2019-02-20T00:19:35.550Z,8.26
2019-02-20T00:20:35.554Z,8.26
2019-02-20T00:21:34.427Z,8.1
2019-02-20T00:22:40.148Z,8.08
2019-02-20T00:23:34.336Z,8.08
2019-02-20T00:24:35.359Z,8.07
2019-02-20T00:25:36.020Z,8.1
2019-02-20T00:26:45.036Z,8.1
2019-02-20T00:27:46.475Z,8.1
2019-02-20T00:28:45.956Z,8
2019-02-20T00:29:49.345Z,8
2019-02-20T00:30:49.548Z,7.85
2019-02-20T00:31:56.284Z,7.9
2019-02-20T00:32:56.228Z,7.93
2019-02-20T00:33:54.957Z,7.87
2019-02-20T00:34:54.641Z,7.89
2019-02-20T00:35:54.004Z,7.89
2019-02-20T00:36:54.988Z,7.89
2019-02-20T00:37:54.255Z,8.02
2019-02-20T00:38:54.823Z,8.04
2019-02-20T00:39:55.452Z,7.86
2019-02-20T00:40:55.867Z,8.05
2019-02-20T00:43:01.820Z,7.98
2019-02-20T00:44:01.764Z,8
2019-02-20T00:45:09.618Z,8.04
2019-02-20T00:46:12.676Z,7.89
2019-02-20T00:47:13.323Z,7.82
2019-02-20T00:48:12.425Z,7.87
2019-02-20T00:49:13.975Z,7.98
2019-02-20T00:50:13.953Z,8.1
2019-02-20T00:51:17.852Z,8.07
2019-02-20T00:52:20.202Z,8.04
2019-02-20T00:53:22.340Z,7.86
2019-02-20T00:54:23.489Z,7.92
2019-02-20T00:55:24.526Z,7.9
2019-02-20T00:56:25.789Z,8.05
2019-02-20T00:57:28.503Z,8.08
2019-02-20T00:58:30.862Z,8.1
2019-02-20T00:59:29.711Z,8.07
2019-02-20T01:00:28.234Z,8.04
2019-02-20T01:01:26.755Z,8.01
2019-02-20T01:02:25.316Z,8.11
2019-02-20T01:03:23.865Z,8.2
2019-02-20T01:04:22.452Z,8.08
2019-02-20T01:05:20.953Z,8.15
2019-02-20T01:06:19.487Z,8.15
2019-02-20T01:07:18.029Z,8.23
2019-02-20T01:08:16.578Z,8.19
2019-02-20T01:09:15.271Z,8.04
2019-02-20T01:10:13.869Z,8.16
2019-02-20T01:11:12.431Z,8.12
2019-02-20T01:12:10.993Z,8.15
2019-02-20T01:13:09.750Z,8.18
2019-02-20T01:14:08.288Z,8.16
2019-02-20T01:15:06.863Z,8.11
2019-02-20T01:16:05.443Z,8.05
2019-02-20T01:17:04.036Z,8.02
2019-02-20T01:18:02.584Z,8.18
2019-02-20T01:19:01.134Z,8.08
2019-02-20T01:19:59.838Z,8.1
2019-02-20T01:20:58.608Z,8.19
2019-02-20T01:21:57.180Z,8.11
2019-02-20T01:22:59.757Z,8.11
2019-02-20T01:23:54.366Z,8.07
2019-02-20T01:24:52.929Z,8.02
2019-02-20T01:25:51.581Z,7.86
2019-02-20T01:26:50.181Z,7.92
2019-02-20T01:27:48.723Z,7.83
2019-02-20T01:28:47.298Z,7.82
2019-02-20T01:29:45.949Z,7.74
2019-02-20T01:30:44.477Z,7.61
2019-02-20T01:31:43.025Z,7.8
2019-02-20T01:32:41.824Z,7.79
2019-02-20T01:33:40.425Z,7.72
2019-02-20T01:34:39.062Z,7.57
2019-02-20T01:35:37.681Z,7.57
2019-02-20T01:36:36.206Z,7.5
2019-02-20T01:37:34.775Z,7.52
2019-02-20T01:38:33.414Z,7.55
2019-02-20T01:39:32.112Z,7.53
2019-02-20T01:40:30.727Z,7.35
2019-02-20T01:41:29.353Z,7.43
2019-02-20T01:42:28.063Z,7.4
2019-02-20T01:43:26.593Z,7.42
2019-02-20T01:44:25.233Z,7.35
2019-02-20T01:45:23.956Z,7.42
2019-02-20T01:46:22.476Z,7.32
2019-02-20T01:47:21.006Z,7.28
2019-02-20T01:48:19.571Z,7.21
2019-02-20T01:49:18.133Z,7.25
2019-02-20T01:50:16.644Z,7.21
2019-02-20T01:51:15.217Z,7.16
2019-02-20T01:52:13.721Z,7.16
2019-02-20T01:53:12.325Z,7.1
2019-02-20T01:54:10.826Z,7.12
2019-02-20T01:55:09.427Z,6.99
2019-02-20T01:56:08.077Z,6.91
2019-02-20T01:57:06.660Z,6.87
2019-02-20T01:58:05.434Z,6.79
2019-02-20T01:59:04.103Z,6.8
2019-02-20T02:00:02.605Z,6.85
2019-02-20T02:01:01.232Z,6.81
2019-02-20T02:01:59.818Z,6.73
2019-02-20T02:02:58.415Z,6.84
2019-02-20T02:03:57.040Z,6.84
2019-02-20T02:04:55.693Z,6.77
2019-02-20T02:05:54.270Z,6.76
2019-02-20T02:06:52.814Z,6.87
2019-02-20T02:07:51.365Z,6.89
2019-02-20T02:08:50.046Z,6.87
2019-02-20T02:09:48.562Z,6.87
2019-02-20T02:10:47.176Z,6.8
2019-02-20T02:11:45.862Z,6.87
2019-02-20T02:12:44.412Z,6.79
2019-02-20T02:13:42.944Z,6.69
2019-02-20T02:14:41.495Z,6.81
2019-02-20T02:15:40.037Z,6.87
2019-02-20T02:16:38.564Z,6.88
2019-02-20T02:17:37.108Z,6.81
2019-02-20T02:18:35.763Z,6.8
2019-02-20T02:19:34.326Z,6.84
2019-02-20T02:20:32.821Z,6.64
2019-02-20T02:21:31.530Z,6.69
2019-02-20T02:22:30.195Z,6.62
2019-02-20T02:23:28.750Z,6.61
2019-02-20T02:24:27.388Z,6.66
2019-02-20T02:25:26.031Z,6.58
2019-02-20T02:26:24.541Z,6.55
2019-02-20T02:27:23.067Z,6.55
2019-02-20T02:28:21.677Z,6.58
2019-02-20T02:29:20.265Z,6.56
2019-02-20T02:30:18.763Z,6.46
2019-02-20T02:31:17.323Z,6.46
2019-02-20T02:32:15.833Z,6.52
2019-02-20T02:33:14.366Z,6.56
2019-02-20T02:34:12.935Z,6.56
2019-02-20T02:35:11.450Z,6.4
2019-02-20T02:36:10.077Z,6.27
2019-02-20T02:37:08.632Z,6.28
2019-02-20T02:38:07.276Z,6.33
2019-02-20T02:39:05.992Z,6.22
2019-02-20T02:40:04.554Z,6.19
2019-02-20T02:41:03.107Z,6.18
2019-02-20T02:42:01.665Z,6.25
2019-02-20T02:43:00.285Z,6.18
2019-02-20T02:43:58.829Z,6.19
2019-02-20T02:44:57.540Z,6.19
2019-02-20T02:45:56.054Z,6.12
2019-02-20T02:46:54.652Z,6.15
2019-02-20T02:47:53.358Z,6.33
2019-02-20T02:48:51.974Z,6.25
2019-02-20T02:49:50.485Z,6.15
2019-02-20T02:50:49.101Z,6.28
2019-02-20T02:51:47.791Z,6.33
2019-02-20T02:52:46.414Z,6.48
2019-02-20T02:53:44.984Z,6.43
2019-02-20T02:54:43.567Z,6.51
2019-02-20T02:55:42.142Z,6.51
2019-02-20T02:56:40.683Z,6.52
2019-02-20T02:57:39.410Z,6.38
2019-02-20T02:58:37.826Z,6.4
2019-02-20T02:59:36.386Z,6.34
2019-02-20T03:00:35.108Z,6.33
2019-02-20T03:01:33.694Z,6.44
2019-02-20T03:02:32.333Z,6.25
2019-02-20T03:04:32.916Z,6.4
2019-02-20T03:05:31.609Z,6.56
2019-02-20T03:06:30.274Z,6.58
2019-02-20T03:07:29.077Z,6.51
2019-02-20T03:08:27.753Z,6.52
2019-02-20T03:09:26.317Z,6.36
2019-02-20T03:10:24.913Z,6.3
2019-02-20T03:11:23.627Z,6.4
2019-02-20T03:12:22.244Z,6.27
2019-02-20T03:13:20.856Z,6.3
2019-02-20T03:14:19.576Z,6.15
2019-02-20T03:15:18.190Z,6.17
2019-02-20T03:16:16.736Z,6.21
2019-02-20T03:17:15.376Z,6.18
2019-02-20T03:18:14.054Z,6.11
2019-02-20T03:19:12.619Z,6.06
2019-02-20T03:20:11.095Z,6.18
2019-02-20T03:21:09.727Z,6.15
2019-02-20T03:22:08.286Z,6.11
2019-02-20T03:23:06.863Z,6.15
2019-02-20T03:24:05.797Z,6.14
2019-02-20T03:25:04.329Z,6.22
2019-02-20T03:26:02.894Z,6.22
2019-02-20T03:27:01.583Z,6.34
2019-02-20T03:28:00.140Z,6.36
2019-02-20T03:28:58.728Z,6.21
2019-02-20T03:29:57.275Z,6.28
2019-02-20T03:30:56.001Z,6.25
2019-02-20T03:31:54.544Z,6.33
2019-02-20T03:32:53.112Z,6.34
2019-02-20T03:33:51.743Z,6.36
2019-02-20T03:34:50.396Z,6.31
2019-02-20T03:35:49.072Z,6.41
2019-02-20T03:36:47.765Z,6.4
2019-02-20T03:37:46.313Z,6.34
2019-02-20T03:38:44.853Z,6.48
2019-02-20T03:39:43.683Z,6.44
2019-02-20T03:40:42.309Z,6.48
2019-02-20T03:41:40.870Z,6.62
2019-02-20T03:42:39.418Z,6.38
2019-02-20T03:43:37.985Z,6.4
2019-02-20T03:44:36.519Z,6.43
2019-02-20T03:45:35.206Z,6.49
2019-02-20T03:46:33.946Z,6.58
2019-02-20T03:47:32.553Z,6.44
2019-02-20T03:48:31.241Z,6.36
2019-02-20T03:49:29.847Z,6.25
2019-02-20T03:50:28.409Z,6.21
2019-02-20T03:51:26.912Z,6.06
2019-02-20T03:52:25.740Z,6.06
2019-02-20T03:53:26.754Z,6.06
2019-02-20T03:54:25.769Z,6.03
2019-02-20T03:55:24.580Z,6.03
2019-02-20T03:56:23.124Z,5.94
2019-02-20T03:57:21.836Z,5.94
2019-02-20T03:58:20.378Z,5.85
2019-02-20T03:59:18.964Z,6.01
2019-02-20T04:00:17.807Z,6.12
2019-02-20T04:01:16.389Z,6.21
2019-02-20T04:02:16.549Z,6.17
2019-02-20T04:03:15.163Z,6.03
2019-02-20T04:04:13.728Z,6.06
2019-02-20T04:05:12.406Z,6.21
2019-02-20T04:06:11.271Z,6.3
2019-02-20T04:07:09.614Z,6.46
2019-02-20T04:09:32.287Z,6.54
2019-02-20T04:10:30.829Z,6.38
2019-02-20T04:11:29.404Z,6.46
2019-02-20T04:12:28.103Z,6.59
2019-02-20T04:13:26.647Z,6.49
2019-02-20T04:14:25.337Z,6.41
2019-02-20T04:15:24.071Z,6.33
2019-02-20T04:16:22.626Z,6.4
2019-02-20T04:17:21.163Z,6.44
2019-02-20T04:18:19.705Z,6.54
2019-02-20T04:19:18.234Z,6.49
2019-02-20T04:20:16.774Z,6.44
2019-02-20T04:21:15.866Z,6.44
2019-02-20T04:22:14.444Z,6.43
2019-02-20T04:23:13.020Z,6.41
2019-02-20T04:24:11.984Z,6.37
2019-02-20T04:25:10.563Z,6.4
2019-02-20T04:26:09.878Z,6.43
2019-02-20T04:27:07.920Z,6.33
2019-02-20T04:28:06.532Z,6.31
2019-02-20T04:29:05.152Z,6.3
2019-02-20T04:30:03.866Z,6.19
2019-02-20T04:31:02.456Z,6.18
2019-02-20T04:32:01.073Z,6.18
2019-02-20T04:32:59.708Z,6.19
2019-02-20T04:33:58.348Z,6.28
2019-02-20T04:34:56.857Z,6.33
2019-02-20T04:35:55.687Z,6.49
2019-02-20T04:36:54.315Z,6.51
2019-02-20T04:37:52.849Z,6.58
2019-02-20T04:38:51.456Z,6.62
2019-02-20T04:39:50.019Z,6.48
2019-02-20T04:40:48.596Z,6.59
2019-02-20T04:41:47.217Z,6.49
2019-02-20T04:42:46.255Z,6.64
2019-02-20T04:43:44.794Z,6.48
2019-02-20T04:44:43.378Z,6.62
2019-02-20T04:45:42.101Z,6.64
2019-02-20T04:46:40.613Z,6.66
2019-02-20T04:47:39.199Z,6.67
2019-02-20T04:48:37.756Z,6.51
2019-02-20T04:49:36.293Z,6.43
2019-02-20T04:50:34.944Z,6.43
2019-02-20T04:51:33.592Z,6.46
2019-02-20T04:52:32.358Z,6.18
2019-02-20T04:53:30.916Z,6.19
2019-02-20T04:54:29.597Z,6.34
2019-02-20T04:55:28.347Z,6.28
2019-02-20T04:56:26.982Z,6.34
2019-02-20T04:57:25.645Z,6.38
2019-02-20T04:58:24.524Z,6.37
2019-02-20T04:59:22.798Z,6.43
2019-02-20T05:00:21.403Z,6.46
2019-02-20T05:01:20.039Z,6.44
2019-02-20T05:02:18.898Z,6.36
2019-02-20T05:03:17.434Z,6.37
2019-02-20T05:04:15.957Z,6.44
2019-02-20T05:05:14.536Z,6.46
2019-02-20T05:06:13.219Z,6.34
2019-02-20T05:07:12.087Z,6.36
2019-02-20T05:08:10.717Z,6.41
2019-02-20T05:09:09.482Z,6.33
2019-02-20T05:10:08.014Z,6.37
2019-02-20T05:11:06.555Z,6.22
2019-02-20T05:12:05.119Z,6.43
2019-02-20T05:13:03.658Z,6.33
2019-02-20T05:14:02.166Z,6.33
2019-02-20T05:15:00.708Z,6.22
2019-02-20T05:15:59.377Z,6.31
2019-02-20T05:16:57.997Z,6.31
2019-02-20T05:17:56.536Z,6.28
2019-02-20T05:18:55.248Z,6.14
2019-02-20T05:19:53.957Z,6.14
2019-02-20T05:20:52.523Z,6.06
2019-02-20T05:21:51.035Z,6.01
2019-02-20T05:22:49.694Z,5.97
2019-02-20T05:23:48.296Z,5.85
2019-02-20T05:24:46.917Z,5.94
2019-02-20T05:25:45.557Z,5.85
2019-02-20T05:26:44.305Z,5.99
2019-02-20T05:27:42.960Z,5.89
2019-02-20T05:28:41.568Z,5.89
2019-02-20T05:29:40.302Z,5.82
2019-02-20T05:30:38.890Z,5.81
2019-02-20T05:31:37.893Z,5.76
2019-02-20T05:32:36.622Z,5.81
2019-02-20T05:35:16.880Z,5.67
2019-02-20T05:36:15.524Z,5.65
2019-02-20T05:37:14.228Z,5.72
2019-02-20T05:38:12.801Z,5.72
2019-02-20T05:39:11.651Z,5.78
2019-02-20T05:40:10.285Z,5.89
2019-02-20T05:41:09.123Z,5.86
2019-02-20T05:42:08.539Z,5.94
2019-02-20T05:43:07.204Z,6.08
2019-02-20T05:44:05.892Z,6.17
2019-02-20T05:45:04.504Z,6.19
2019-02-20T05:46:03.125Z,6.25
2019-02-20T06:03:45.413Z,6.19
2019-02-20T06:04:43.987Z,6.25
2019-02-20T06:05:42.568Z,6.09
2019-02-20T06:06:42.114Z,6.08
2019-02-20T06:07:41.025Z,6.11
2019-02-20T06:08:39.939Z,6
2019-02-20T06:09:38.564Z,6.08
2019-02-20T06:10:37.237Z,6.11
2019-02-20T06:11:36.092Z,6.17
2019-02-20T06:12:34.614Z,6.17
2019-02-20T06:13:33.185Z,6.11
2019-02-20T06:14:31.975Z,6.08
2019-02-20T06:15:30.578Z,6.04
2019-02-20T06:16:29.132Z,5.93
2019-02-20T06:17:27.709Z,6.06
2019-02-20T06:18:26.258Z,6.06
2019-02-20T06:19:24.825Z,6.14
2019-02-20T06:20:23.367Z,6.22
2019-02-20T06:21:21.990Z,6.25
2019-02-20T06:22:20.556Z,6.19
2019-02-20T06:23:19.045Z,6.27
2019-02-20T06:24:17.682Z,6.34
2019-02-20T06:25:16.326Z,6.33
2019-02-20T06:26:14.980Z,6.21
2019-02-20T06:27:13.730Z,6.33
2019-02-20T06:28:12.310Z,6.4
2019-02-20T06:29:10.799Z,6.28
2019-02-20T06:30:09.404Z,6.38
2019-02-20T06:31:08.174Z,6.27
2019-02-20T06:32:06.641Z,6.27
2019-02-20T06:33:05.361Z,6.27
2019-02-20T06:34:04.068Z,6.34
2019-02-20T06:35:02.573Z,6.4
2019-02-20T06:36:01.359Z,6.59
2019-02-20T06:37:00.048Z,6.67
2019-02-20T06:37:58.678Z,6.71
2019-02-20T06:38:57.497Z,6.62
2019-02-20T06:39:56.219Z,6.59
2019-02-20T06:40:54.751Z,6.62
2019-02-20T06:41:53.397Z,6.64
2019-02-20T06:42:52.132Z,6.66
2019-02-20T06:43:50.745Z,6.79
2019-02-20T06:44:49.361Z,6.85
2019-02-20T06:45:48.068Z,6.79
2019-02-20T06:46:46.670Z,6.59
2019-02-20T06:47:45.501Z,6.79
2019-02-20T06:48:44.107Z,6.79
2019-02-20T06:49:42.809Z,6.67
2019-02-20T06:50:41.526Z,6.61
2019-02-20T06:51:40.098Z,6.8
2019-02-20T06:52:38.663Z,6.84
2019-02-20T06:53:37.210Z,6.94
2019-02-20T06:54:36.042Z,6.92
2019-02-20T06:55:34.721Z,6.81
2019-02-20T06:56:33.332Z,6.95
2019-02-20T06:57:31.892Z,6.7
2019-02-20T06:58:30.459Z,6.69
2019-02-20T06:59:29.026Z,6.81
2019-02-20T07:00:27.570Z,6.84
2019-02-20T07:01:26.136Z,6.8
2019-02-20T07:02:47.344Z,6.84
2019-02-20T07:03:46.489Z,6.98
2019-02-20T07:04:45.120Z,6.98
2019-02-20T07:05:43.802Z,7.07
2019-02-20T07:06:42.464Z,7.07
2019-02-20T07:07:41.079Z,7.15
2019-02-20T07:08:39.940Z,7.28
2019-02-20T07:09:38.685Z,7.2
2019-02-20T07:10:37.384Z,7.23
2019-02-20T07:11:36.259Z,7.25
2019-02-20T07:12:34.684Z,7.12
2019-02-20T07:13:33.390Z,7.16
2019-02-20T07:14:32.157Z,7.27
2019-02-20T07:15:30.981Z,7.27
2019-02-20T07:16:29.624Z,7.32
2019-02-20T07:17:28.261Z,7.28
2019-02-20T07:18:26.858Z,7.39
2019-02-20T07:19:25.638Z,7.3
2019-02-20T07:20:24.522Z,7.39
2019-02-20T07:21:23.152Z,7.34
2019-02-20T07:22:21.903Z,7.49
2019-02-20T07:23:20.474Z,7.48
2019-02-20T07:24:19.205Z,7.5
2019-02-20T07:25:18.727Z,7.55
2019-02-20T07:26:17.391Z,7.63
2019-02-20T07:27:16.316Z,7.53
2019-02-20T07:28:14.877Z,7.49
2019-02-20T07:29:13.537Z,7.52
2019-02-20T07:30:12.430Z,7.49
2019-02-20T07:31:10.994Z,7.55
2019-02-20T07:32:09.655Z,7.53
2019-02-20T07:33:08.454Z,7.63
2019-02-20T07:34:07.017Z,7.77
2019-02-20T07:35:05.680Z,7.64
2019-02-20T07:36:04.283Z,7.6
2019-02-20T07:37:02.858Z,7.77
2019-02-20T07:38:01.374Z,7.69
2019-02-20T07:39:00.691Z,7.82
2019-02-20T07:39:59.316Z,7.9
2019-02-20T07:40:57.908Z,7.9
2019-02-20T07:41:56.475Z,7.89
2019-02-20T07:42:55.090Z,7.87
2019-02-20T07:43:54.045Z,7.95
2019-02-20T07:44:52.856Z,8.01
2019-02-20T07:45:51.422Z,8.04
2019-02-20T07:46:50.007Z,7.95
2019-02-20T07:47:48.587Z,7.92
2019-02-20T07:48:47.392Z,8.02
2019-02-20T07:49:46.104Z,8.04
2019-02-20T07:50:44.699Z,8.01
2019-02-20T07:51:43.401Z,8.01
2019-02-20T07:52:41.968Z,8.1
2019-02-20T07:53:40.499Z,8.08
2019-02-20T07:54:39.364Z,8.1
2019-02-20T07:55:38.178Z,8.19
2019-02-20T07:56:36.889Z,8.25
2019-02-20T07:57:35.670Z,8.19
2019-02-20T07:58:34.240Z,8.11
2019-02-20T07:59:32.765Z,8.11
2019-02-20T08:00:31.465Z,8.18
2019-02-20T08:01:30.204Z,8.25
2019-02-20T08:02:28.785Z,8.29
2019-02-20T08:03:29.468Z,8.29
2019-02-20T08:04:26.124Z,8.43
2019-02-20T08:05:24.634Z,8.44
2019-02-20T08:06:23.182Z,8.5
2019-02-20T08:07:22.812Z,8.53
2019-02-20T08:08:21.436Z,8.58
2019-02-20T08:09:20.065Z,8.56
2019-02-20T08:10:18.629Z,8.63
2019-02-20T08:11:17.291Z,8.74
2019-02-20T08:12:16.218Z,8.74
2019-02-20T08:13:14.723Z,8.87
2019-02-20T08:14:13.340Z,8.84
2019-02-20T08:15:11.973Z,8.84
2019-02-20T08:16:10.511Z,8.87
2019-02-20T08:17:09.107Z,8.84
2019-02-20T08:18:07.828Z,8.94
2019-02-20T08:19:06.451Z,9.01
2019-02-20T08:20:05.074Z,8.99
2019-02-20T08:21:03.712Z,9.04
2019-02-20T08:22:02.306Z,9.13
2019-02-20T08:23:01.070Z,9.23
2019-02-20T08:23:59.633Z,9.32
2019-02-20T08:24:58.216Z,9.33
2019-02-20T08:25:56.737Z,9.14
2019-02-20T08:26:55.516Z,9.24
2019-02-20T08:27:54.190Z,9.24
2019-02-20T08:28:52.833Z,9.28
2019-02-20T08:29:51.495Z,9.24
2019-02-20T08:30:50.078Z,9.4
2019-02-20T08:31:48.629Z,9.4
2019-02-20T08:32:47.220Z,9.39
2019-02-20T08:33:45.826Z,9.38
2019-02-20T08:34:44.377Z,9.26
2019-02-20T08:35:42.964Z,9.17
2019-02-20T08:36:41.909Z,9.17
2019-02-20T08:37:40.639Z,9.14
2019-02-20T08:38:39.979Z,9.24
2019-02-20T08:39:38.504Z,9.29
2019-02-20T08:40:37.083Z,9.29
2019-02-20T08:41:35.699Z,9.35
2019-02-20T08:42:34.309Z,9.4
2019-02-20T08:43:32.874Z,9.33
2019-02-20T08:44:31.567Z,9.28
2019-02-20T08:45:30.181Z,9.35
2019-02-20T08:46:28.735Z,9.26
2019-02-20T08:47:27.245Z,9.21
2019-02-20T08:48:26.515Z,9.1
2019-02-20T08:49:24.597Z,9.24
2019-02-20T08:50:23.269Z,9.31
2019-02-20T08:51:21.941Z,9.32
2019-02-20T08:52:20.850Z,9.21
2019-02-20T08:53:19.432Z,9.26
2019-02-20T08:54:18.147Z,9.17
2019-02-20T08:55:18.780Z,9.24
2019-02-20T08:56:16.353Z,9.32
2019-02-20T08:57:15.046Z,9.29
2019-02-20T08:58:13.825Z,9.46
2019-02-20T08:59:12.464Z,9.38
2019-02-20T09:00:11.077Z,9.39
2019-02-20T09:01:09.771Z,9.35
2019-02-20T09:02:08.370Z,9.39
2019-02-20T09:03:06.995Z,9.36
2019-02-20T09:04:05.625Z,9.4
2019-02-20T09:05:04.183Z,9.43
2019-02-20T09:06:03.328Z,9.48
2019-02-20T09:07:02.007Z,9.56
2019-02-20T09:08:00.572Z,9.54
2019-02-20T09:08:59.113Z,9.5
2019-02-20T09:11:50.794Z,9.66
2019-02-20T09:12:49.372Z,9.69
2019-02-20T09:15:12.596Z,9.72
2019-02-20T09:16:11.254Z,9.69
2019-02-20T09:17:09.870Z,9.68
2019-02-20T09:18:08.521Z,9.68
2019-02-20T09:19:07.074Z,9.71
2019-02-20T09:20:05.958Z,9.71
2019-02-20T09:21:04.642Z,9.65
2019-02-20T09:22:03.205Z,9.71
2019-02-20T09:23:01.785Z,9.79
2019-02-20T09:24:00.320Z,9.81
2019-02-20T09:24:58.945Z,9.78
2019-02-20T09:25:57.433Z,9.81
2019-02-20T09:26:56.063Z,9.81
2019-02-20T09:27:54.696Z,9.83
2019-02-20T09:28:53.346Z,9.78
2019-02-20T09:29:52.036Z,9.87
2019-02-20T09:30:50.604Z,9.87
2019-02-20T09:31:49.198Z,9.83
2019-02-20T09:32:47.860Z,9.89
2019-02-20T09:33:46.634Z,9.86
2019-02-20T09:34:45.313Z,9.78
2019-02-20T09:35:43.906Z,9.75
2019-02-20T09:36:42.782Z,9.81
2019-02-20T09:37:41.347Z,9.81
2019-02-20T09:38:40.007Z,9.84
2019-02-20T09:39:38.565Z,9.81
2019-02-20T09:40:37.062Z,9.93
2019-02-20T09:41:35.753Z,9.86
2019-02-20T09:42:34.434Z,9.99
2019-02-20T09:43:33.086Z,9.97
2019-02-20T09:44:31.923Z,9.99
2019-02-20T09:45:30.448Z,9.96
2019-02-20T09:46:29.024Z,10.02
2019-02-20T09:47:27.771Z,9.99
2019-02-20T09:48:26.249Z,9.99
2019-02-20T09:49:24.767Z,10.02
2019-02-20T09:50:23.338Z,10.07
2019-02-20T09:51:22.180Z,10.02
2019-02-20T09:52:20.734Z,10.11
2019-02-20T09:53:19.280Z,10.08
2019-02-20T09:54:18.101Z,10.09
2019-02-20T09:55:16.671Z,10.23
2019-02-20T09:56:16.150Z,10.2
2019-02-20T09:57:13.826Z,10.25
2019-02-20T09:58:12.421Z,10.29
2019-02-20T09:59:10.964Z,10.34
2019-02-20T10:00:09.488Z,10.4
2019-02-20T10:01:08.188Z,10.32
2019-02-20T10:02:06.694Z,10.47
2019-02-20T10:03:05.329Z,10.51
2019-02-20T10:04:04.163Z,10.48
2019-02-20T10:05:02.792Z,10.47
2019-02-20T10:06:01.321Z,10.66
2019-02-20T10:06:59.978Z,10.71
2019-02-20T10:07:58.594Z,10.7
2019-02-20T10:08:57.178Z,10.68
2019-02-20T10:09:55.911Z,10.67
2019-02-20T10:10:54.634Z,10.63
2019-02-20T10:11:53.336Z,10.56
2019-02-20T10:12:52.043Z,10.74
2019-02-20T10:13:50.583Z,10.66
2019-02-20T10:14:49.247Z,10.74
2019-02-20T10:15:47.815Z,10.79
2019-02-20T10:16:46.395Z,10.73
2019-02-20T10:17:44.918Z,10.67
2019-02-20T10:18:44.293Z,10.67
2019-02-20T10:19:42.918Z,10.6
2019-02-20T10:20:41.561Z,10.6
2019-02-20T10:21:40.308Z,10.64
2019-02-20T10:22:39.126Z,10.7
2019-02-20T10:23:37.795Z,10.82
2019-02-20T10:24:36.357Z,10.85
2019-02-20T10:25:34.923Z,10.79
2019-02-20T10:26:33.747Z,10.76
2019-02-20T10:27:32.573Z,10.73
2019-02-20T10:28:31.258Z,10.79
2019-02-20T10:29:29.950Z,10.88
2019-02-20T10:30:28.506Z,10.94
2019-02-20T10:31:27.153Z,10.91
2019-02-20T10:32:25.932Z,10.92
2019-02-20T10:33:24.627Z,11.04
2019-02-20T10:34:23.422Z,11.06
2019-02-20T10:35:22.011Z,11.22
2019-02-20T10:36:20.833Z,11.19
2019-02-20T10:37:19.494Z,11.24
2019-02-20T10:38:18.114Z,11.19
2019-02-20T10:39:16.749Z,11.18
2019-02-20T10:40:15.421Z,11.11
2019-02-20T10:41:14.064Z,11.1
2019-02-20T10:42:12.641Z,11.09
2019-02-20T10:43:11.580Z,11.15
2019-02-20T10:44:10.276Z,11.22
2019-02-20T10:45:08.867Z,11.18
2019-02-20T10:46:07.443Z,11.29
2019-02-20T10:47:06.071Z,11.28
2019-02-20T10:48:04.665Z,11.36
2019-02-20T10:49:03.425Z,11.37
2019-02-20T10:50:02.324Z,11.43
2019-02-20T10:51:00.995Z,11.49
2019-02-20T10:51:59.575Z,11.57
2019-02-20T10:52:58.145Z,11.61
2019-02-20T10:53:56.731Z,11.62
2019-02-20T10:54:57.683Z,11.7
2019-02-20T10:55:54.365Z,11.7
2019-02-20T10:56:53.002Z,11.73
2019-02-20T10:57:51.660Z,11.83
2019-02-20T10:58:50.279Z,11.8
2019-02-20T10:59:48.829Z,11.78
2019-02-20T11:00:47.395Z,11.85
2019-02-20T11:01:46.136Z,11.73
2019-02-20T11:02:44.770Z,11.78
2019-02-20T11:03:43.339Z,11.88
2019-02-20T11:04:41.998Z,11.9
2019-02-20T12:12:07.312Z,12.62
2019-02-20T12:13:06.133Z,12.54
2019-02-20T12:14:04.679Z,12.52
2019-02-20T12:15:03.451Z,12.57
2019-02-20T12:16:02.514Z,12.47
2019-02-20T12:17:01.053Z,12.5
2019-02-20T12:17:59.831Z,12.53
2019-02-20T12:18:58.532Z,12.56
2019-02-20T12:19:57.298Z,12.56
2019-02-20T12:20:56.159Z,12.64
2019-02-20T12:21:54.820Z,12.64
2019-02-20T12:22:53.462Z,12.56
2019-02-20T12:26:35.100Z,12.62
2019-02-20T12:29:12.729Z,12.6
2019-02-20T12:30:11.287Z,12.59
2019-02-20T12:31:09.993Z,12.56
2019-02-20T12:32:08.559Z,12.6
2019-02-20T12:33:07.087Z,12.71
2019-02-20T12:34:05.699Z,12.62
2019-02-20T12:35:04.293Z,12.67
2019-02-20T12:36:02.833Z,12.74
2019-02-20T12:37:01.385Z,12.65
2019-02-20T12:38:00.048Z,12.64
2019-02-20T12:38:58.651Z,12.67
2019-02-20T12:41:21.367Z,12.65
2019-02-20T12:45:00.805Z,12.71
2019-02-20T12:45:59.428Z,12.74
2019-02-20T12:57:10.782Z,12.85
2019-02-20T12:58:09.381Z,12.74
2019-02-20T12:59:08.162Z,12.75
2019-02-20T13:00:06.702Z,12.82
2019-02-20T13:01:05.300Z,12.82
2019-02-20T13:03:02.807Z,12.95
2019-02-20T13:04:01.368Z,12.92
2019-02-20T13:04:59.989Z,12.96
2019-02-20T13:05:58.625Z,13.03
2019-02-20T13:06:59.328Z,12.93
2019-02-20T13:07:55.959Z,12.96
2019-02-20T13:09:56.567Z,12.97
2019-02-20T13:10:56.590Z,12.95
2019-02-20T13:11:53.679Z,13.07
2019-02-20T13:12:52.302Z,13.07
2019-02-20T13:13:50.827Z,13
2019-02-20T13:14:49.313Z,13.04
2019-02-20T13:15:47.951Z,13.1
2019-02-20T13:16:46.595Z,13.1
2019-02-20T13:17:45.138Z,13.03
2019-02-20T13:18:43.723Z,13.07
2019-02-20T13:19:42.301Z,13.1
2019-02-20T13:20:40.828Z,13.07
2019-02-20T13:21:39.427Z,13.07
2019-02-20T13:22:38.140Z,13.11
2019-02-20T13:23:36.890Z,13.07
2019-02-20T13:24:35.503Z,12.95
2019-02-20T13:25:34.158Z,13.1
2019-02-20T13:26:33.040Z,13.07
2019-02-20T13:27:31.589Z,13.07
2019-02-20T13:28:30.193Z,13.01
2019-02-20T13:29:28.834Z,13.07
2019-02-20T13:30:27.402Z,13.1
2019-02-20T13:31:26.126Z,13.08
2019-02-20T13:32:24.670Z,13.04
2019-02-20T13:33:23.219Z,13.11
2019-02-20T13:34:21.862Z,13.07
2019-02-20T13:35:20.460Z,13.04
2019-02-20T13:36:18.986Z,13.08
2019-02-20T13:37:17.599Z,13.1
2019-02-20T13:38:16.415Z,13.08
2019-02-20T13:39:14.753Z,13.11
2019-02-20T13:40:13.481Z,13.17
2019-02-20T13:41:12.607Z,13.07
2019-02-20T13:42:10.788Z,13.15
2019-02-20T13:43:09.426Z,13.14
2019-02-20T13:44:08.101Z,13.08
2019-02-20T13:45:06.763Z,13.08
2019-02-20T13:46:05.463Z,13.19
2019-02-20T13:47:04.981Z,13.12
2019-02-20T13:48:03.275Z,13.14
2019-02-20T13:49:01.910Z,13.12
2019-02-20T13:50:00.426Z,13.2
2019-02-20T13:50:59.120Z,13.19
2019-02-20T13:51:57.673Z,13.22
2019-02-20T13:52:56.382Z,13.22
2019-02-20T13:53:54.865Z,13.38
2019-02-20T13:54:53.435Z,13.26
2019-02-20T13:55:53.696Z,13.32
2019-02-20T13:56:50.699Z,13.28
2019-02-20T13:57:49.182Z,13.3
2019-02-20T13:58:47.870Z,13.42
2019-02-20T13:59:46.462Z,13.36
2019-02-20T14:02:09.278Z,13.33
2019-02-20T14:03:08.053Z,13.28
2019-02-20T14:04:06.638Z,13.32
2019-02-20T14:05:05.220Z,13.32
2019-02-20T14:06:03.756Z,13.45
2019-02-20T14:07:02.299Z,13.48
2019-02-20T14:08:00.891Z,13.48
2019-02-20T14:08:59.449Z,13.52
2019-02-20T14:09:57.963Z,13.44
2019-02-20T14:10:56.485Z,13.54
2019-02-20T14:11:55.043Z,13.52
2019-02-20T14:12:53.643Z,13.59
2019-02-20T14:13:52.314Z,13.6
2019-02-20T14:16:32.572Z,13.54
2019-02-20T14:17:31.088Z,13.55
2019-02-20T14:18:29.746Z,13.57
2019-02-20T14:19:28.299Z,13.52
2019-02-20T14:20:27.094Z,13.57
2019-02-20T14:21:26.950Z,13.45
2019-02-20T14:22:24.529Z,13.57
2019-02-20T14:23:23.093Z,13.48
2019-02-20T14:24:21.868Z,13.55
2019-02-20T14:25:20.434Z,13.59
2019-02-20T14:28:18.549Z,13.55
2019-02-20T14:29:17.206Z,13.54
2019-02-20T14:30:15.878Z,13.55
2019-02-20T14:31:14.760Z,13.51
2019-02-20T14:32:13.383Z,13.52
2019-02-20T14:33:11.934Z,13.57
2019-02-20T14:34:10.666Z,13.54
2019-02-20T14:35:09.204Z,13.6
2019-02-20T14:36:08.010Z,13.52
2019-02-20T14:37:06.543Z,13.48
2019-02-20T14:38:05.069Z,13.42
2019-02-20T14:39:03.669Z,13.44
2019-02-20T14:42:25.110Z,13.45
2019-02-20T14:43:23.895Z,13.46
2019-02-20T14:44:22.541Z,13.45
2019-02-20T14:45:21.208Z,13.42
2019-02-20T14:46:19.903Z,13.39
2019-02-20T14:47:18.429Z,13.45
2019-02-20T14:48:16.953Z,13.44
2019-02-20T14:49:15.628Z,13.42
2019-02-20T14:50:14.393Z,13.46
2019-02-20T14:51:12.955Z,13.44
2019-02-20T14:52:11.657Z,13.41
2019-02-20T14:53:10.332Z,13.48
2019-02-20T14:54:08.982Z,13.48
2019-02-20T14:55:07.731Z,13.39
2019-02-20T14:56:06.380Z,13.38
2019-02-20T14:57:04.904Z,13.38
2019-02-20T14:58:03.442Z,13.29
2019-02-20T14:59:02.189Z,13.36
2019-02-20T15:00:00.939Z,13.38
2019-02-20T15:00:59.742Z,13.36
2019-02-20T15:01:58.424Z,13.3
2019-02-20T15:02:57.100Z,13.28
2019-02-20T15:03:55.885Z,13.32
2019-02-20T15:04:54.518Z,13.29
2019-02-20T15:05:53.127Z,13.29